Time;durP1;ratioP1;P1;durP2;ratioP2;P2;SDS_P1;SDS_P2;PMS_P1;PMS_P2;Temp;Humidity;BMP_temperature;BMP_pressure;BME280_temperature;BME280_humidity;BME280_pressure;Samples;Min_cycle;Max_cycle;Signal;HPM_P1;HPM_P2
2024/02/11 00:01:58;;;;;;;16.38;9.05;;;;;;;;;;5115316;28;20039;-60
2024/02/11 00:04:24;;;;;;;19.55;8.38;;;;;;;;;;5115595;28;20027;-61
2024/02/11 00:06:49;;;;;;;38.33;23.65;;;;;;;;;;5115586;28;20067;-61
2024/02/11 00:09:15;;;;;;;19.73;10.98;;;;;;;;;;5115470;28;20050;-60
2024/02/11 00:11:40;;;;;;;15.45;8.48;;;;;;;;;;5115324;28;20042;-60
2024/02/11 00:14:05;;;;;;;13.80;7.65;;;;;;;;;;5096372;28;20554;-61
2024/02/11 00:16:31;;;;;;;18.38;8.40;;;;;;;;;;5113851;28;20030;-61
2024/02/11 00:18:56;;;;;;;15.30;8.65;;;;;;;;;;5095364;28;20434;-60
2024/02/11 00:21:23;;;;;;;15.00;9.27;;;;;;;;;;5113873;28;20027;-60
2024/02/11 00:23:49;;;;;;;30.70;17.35;;;;;;;;;;5095442;28;20028;-64
2024/02/11 00:26:16;;;;;;;32.17;17.35;;;;;;;;;;5113412;28;20027;-64
2024/02/11 00:28:41;;;;;;;26.40;13.00;;;;;;;;;;5095494;28;20036;-64
2024/02/11 00:31:07;;;;;;;26.08;12.40;;;;;;;;;;5095823;28;20369;-64
2024/02/11 00:33:32;;;;;;;24.42;10.50;;;;;;;;;;5114208;28;20077;-64
2024/02/11 00:35:59;;;;;;;23.55;9.88;;;;;;;;;;5113239;28;20122;-64
2024/02/11 00:38:25;;;;;;;14.25;8.40;;;;;;;;;;5113566;28;20101;-65
2024/02/11 00:40:51;;;;;;;15.77;8.02;;;;;;;;;;5113623;28;20039;-65
2024/02/11 00:43:16;;;;;;;12.50;7.38;;;;;;;;;;5095531;28;20027;-60
2024/02/11 00:45:41;;;;;;;14.45;6.90;;;;;;;;;;5113580;28;20028;-61
2024/02/11 00:48:07;;;;;;;13.40;8.05;;;;;;;;;;5113923;28;20064;-60
2024/02/11 00:50:33;;;;;;;34.88;17.63;;;;;;;;;;5114748;28;20024;-60
2024/02/11 00:53:02;;;;;;;17.67;8.77;;;;;;;;;;5114883;28;20027;-63
2024/02/11 00:55:28;;;;;;;12.45;7.20;;;;;;;;;;5114898;28;20438;-64
2024/02/11 00:57:54;;;;;;;14.77;8.13;;;;;;;;;;5096540;28;20054;-61
2024/02/11 01:00:20;;;;;;;14.32;8.60;;;;;;;;;;5114617;28;20431;-61
2024/02/11 01:02:45;;;;;;;18.77;11.02;;;;;;;;;;5114589;28;20458;-59
2024/02/11 01:05:11;;;;;;;20.48;11.20;;;;;;;;;;5114494;28;20044;-59
2024/02/11 01:07:38;;;;;;;22.42;11.88;;;;;;;;;;5114097;28;20023;-60
2024/02/11 01:10:04;;;;;;;13.05;8.00;;;;;;;;;;5114136;28;20035;-63
2024/02/11 01:12:30;;;;;;;16.25;9.10;;;;;;;;;;5114242;28;20031;-64
2024/02/11 01:14:56;;;;;;;15.25;8.52;;;;;;;;;;5114545;28;20153;-64
2024/02/11 01:17:23;;;;;;;15.43;6.53;;;;;;;;;;5096185;28;20043;-67
2024/02/11 01:19:49;;;;;;;15.00;8.18;;;;;;;;;;5114467;28;20032;-66
2024/02/11 01:22:14;;;;;;;15.07;9.20;;;;;;;;;;5095859;28;20027;-69
2024/02/11 01:24:39;;;;;;;13.10;6.63;;;;;;;;;;5114024;28;20112;-65
2024/02/11 01:27:05;;;;;;;11.65;6.07;;;;;;;;;;5113870;28;20077;-66
2024/02/11 01:29:30;;;;;;;12.95;5.78;;;;;;;;;;5114000;28;20046;-66
2024/02/11 01:31:56;;;;;;;11.50;6.53;;;;;;;;;;5115183;28;20023;-66
2024/02/11 01:34:21;;;;;;;17.40;6.43;;;;;;;;;;5137794;27;20027;-63
2024/02/11 01:36:46;;;;;;;14.13;6.82;;;;;;;;;;5120573;27;20104;-62
2024/02/11 01:39:14;;;;;;;15.23;5.95;;;;;;;;;;5138841;27;20037;-63
2024/02/11 01:41:39;;;;;;;11.82;5.93;;;;;;;;;;5139204;27;20080;-62
2024/02/11 01:44:05;;;;;;;13.57;6.43;;;;;;;;;;5139023;27;20027;-64
2024/02/11 01:46:30;;;;;;;13.70;7.38;;;;;;;;;;5138411;27;20062;-63
2024/02/11 01:49:02;;;;;;;14.07;6.70;;;;;;;;;;5138687;27;20074;-62
2024/02/11 01:51:29;;;;;;;13.00;7.35;;;;;;;;;;5138263;27;20481;-62
2024/02/11 01:53:56;;;;;;;17.63;7.43;;;;;;;;;;5138649;27;20034;-65
2024/02/11 01:56:23;;;;;;;12.48;7.47;;;;;;;;;;5138575;27;20381;-65
2024/02/11 01:58:49;;;;;;;14.00;7.82;;;;;;;;;;5138247;27;20121;-66
2024/02/11 02:01:14;;;;;;;18.08;8.77;;;;;;;;;;5138378;27;20035;-61
2024/02/11 02:03:40;;;;;;;16.88;8.30;;;;;;;;;;5138306;27;20033;-64
2024/02/11 02:06:06;;;;;;;14.93;8.23;;;;;;;;;;5138687;27;20037;-65
2024/02/11 02:08:31;;;;;;;15.57;7.72;;;;;;;;;;5138621;27;20083;-65
2024/02/11 02:10:56;;;;;;;20.58;8.23;;;;;;;;;;5138177;27;20019;-62
2024/02/11 02:13:22;;;;;;;16.80;8.48;;;;;;;;;;5138141;27;20516;-61
2024/02/11 02:15:47;;;;;;;18.27;8.55;;;;;;;;;;5137408;27;20023;-62
2024/02/11 02:18:13;;;;;;;14.50;8.30;;;;;;;;;;5118270;27;20055;-62
2024/02/11 02:20:38;;;;;;;15.52;9.35;;;;;;;;;;5137027;27;20029;-62
2024/02/11 02:23:04;;;;;;;16.98;8.90;;;;;;;;;;5118155;27;20047;-62
2024/02/11 02:25:30;;;;;;;16.23;8.80;;;;;;;;;;5136692;27;20488;-62
2024/02/11 02:27:56;;;;;;;18.40;8.70;;;;;;;;;;5136857;27;20027;-62
2024/02/11 02:30:22;;;;;;;16.02;9.43;;;;;;;;;;5137338;27;20088;-61
2024/02/11 02:32:47;;;;;;;14.55;8.90;;;;;;;;;;5137551;27;20071;-61
2024/02/11 02:35:21;;;;;;;18.13;8.73;;;;;;;;;;5137439;27;20035;-61
2024/02/11 02:37:47;;;;;;;21.80;9.65;;;;;;;;;;5136109;27;20042;-64
2024/02/11 02:40:13;;;;;;;17.83;9.00;;;;;;;;;;5135842;27;20038;-61
2024/02/11 02:42:38;;;;;;;15.73;8.73;;;;;;;;;;5134573;27;20023;-61
2024/02/11 02:45:03;;;;;;;19.42;8.85;;;;;;;;;;5135083;27;20027;-60
2024/02/11 02:47:29;;;;;;;14.10;8.63;;;;;;;;;;5117569;27;20042;-64
2024/02/11 02:49:54;;;;;;;16.13;8.52;;;;;;;;;;5117503;27;20059;-66
2024/02/11 02:52:20;;;;;;;13.30;8.45;;;;;;;;;;5118875;27;20080;-66
2024/02/11 02:54:45;;;;;;;16.63;9.30;;;;;;;;;;5137163;27;20039;-64
2024/02/11 02:57:12;;;;;;;17.02;9.02;;;;;;;;;;5137425;27;20019;-64
2024/02/11 02:59:37;;;;;;;18.35;9.65;;;;;;;;;;5137437;27;20106;-60
2024/02/11 03:02:04;;;;;;;14.48;8.60;;;;;;;;;;5118641;27;20070;-60
2024/02/11 03:04:29;;;;;;;13.65;8.82;;;;;;;;;;5118848;27;20023;-60
2024/02/11 03:06:55;;;;;;;15.75;8.32;;;;;;;;;;5118665;27;20423;-63
2024/02/11 03:09:21;;;;;;;16.92;8.63;;;;;;;;;;5137351;27;20042;-63
2024/02/11 03:11:49;;;;;;;17.38;9.18;;;;;;;;;;5137156;27;20051;-64
2024/02/11 03:14:15;;;;;;;14.30;8.90;;;;;;;;;;5137239;27;20027;-64
2024/02/11 03:16:45;;;;;;;16.50;9.98;;;;;;;;;;5136978;27;20021;-64
2024/02/11 03:19:13;;;;;;;18.13;9.63;;;;;;;;;;5137018;27;20031;-64
2024/02/11 03:21:39;;;;;;;17.67;9.57;;;;;;;;;;5136626;27;20376;-64
2024/02/11 03:24:07;;;;;;;17.40;9.05;;;;;;;;;;5136697;27;20031;-64
2024/02/11 03:26:32;;;;;;;17.48;8.45;;;;;;;;;;5136876;27;20055;-64
2024/02/11 03:28:58;;;;;;;14.82;8.57;;;;;;;;;;5136965;27;20073;-64
2024/02/11 03:31:24;;;;;;;14.60;8.70;;;;;;;;;;5136802;27;20030;-64
2024/02/11 03:33:49;;;;;;;16.17;8.82;;;;;;;;;;5136383;27;20039;-64
2024/02/11 03:36:16;;;;;;;15.52;8.40;;;;;;;;;;5136180;27;20372;-64
2024/02/11 03:38:41;;;;;;;18.85;8.38;;;;;;;;;;5117747;27;20015;-64
2024/02/11 03:41:07;;;;;;;15.15;8.18;;;;;;;;;;5136186;27;20034;-63
2024/02/11 03:43:33;;;;;;;15.02;7.93;;;;;;;;;;5136575;27;20041;-64
2024/02/11 03:45:58;;;;;;;13.50;7.57;;;;;;;;;;5136083;27;20123;-63
2024/02/11 03:48:24;;;;;;;15.35;8.55;;;;;;;;;;5136466;27;20070;-65
2024/02/11 03:50:50;;;;;;;18.65;8.57;;;;;;;;;;5117583;27;20022;-66
2024/02/11 03:53:18;;;;;;;16.48;8.45;;;;;;;;;;5136383;27;20027;-66
2024/02/11 03:55:44;;;;;;;14.07;7.90;;;;;;;;;;5135867;27;20023;-66
2024/02/11 03:58:10;;;;;;;23.85;15.65;;;;;;;;;;5117845;27;20042;-66
2024/02/11 04:00:36;;;;;;;12.98;8.82;;;;;;;;;;5136334;27;20031;-61
2024/02/11 04:03:01;;;;;;;14.82;7.75;;;;;;;;;;5136119;27;20121;-61
2024/02/11 04:05:28;;;;;;;13.77;7.82;;;;;;;;;;5117973;27;20039;-61
2024/02/11 04:07:55;;;;;;;13.30;9.48;;;;;;;;;;5135828;27;20039;-61
2024/02/11 04:10:23;;;;;;;15.13;7.53;;;;;;;;;;5117503;27;20384;-61
2024/02/11 04:12:52;;;;;;;13.65;8.13;;;;;;;;;;5135907;27;20080;-60
2024/02/11 04:15:24;;;;;;;14.52;8.35;;;;;;;;;;5117587;27;20027;-60
2024/02/11 04:17:50;;;;;;;10.32;7.07;;;;;;;;;;5135799;27;20023;-61
2024/02/11 04:20:23;;;;;;;18.15;12.38;;;;;;;;;;5136021;27;20357;-60
2024/02/11 04:22:51;;;;;;;13.45;7.78;;;;;;;;;;5135889;27;20031;-64
2024/02/11 04:25:17;;;;;;;11.88;6.30;;;;;;;;;;5135579;27;20128;-64
2024/02/11 04:27:44;;;;;;;10.60;7.22;;;;;;;;;;5135640;27;20461;-64
2024/02/11 04:30:14;;;;;;;12.88;7.95;;;;;;;;;;5135533;27;20023;-65
2024/02/11 04:32:42;;;;;;;13.90;9.32;;;;;;;;;;5135037;27;20645;-60
2024/02/11 04:35:11;;;;;;;13.98;8.10;;;;;;;;;;5135757;27;20032;-60
2024/02/11 04:37:38;;;;;;;27.38;21.42;;;;;;;;;;5135376;27;20031;-60
2024/02/11 04:40:09;;;;;;;16.20;10.52;;;;;;;;;;5135596;27;20027;-60
2024/02/11 04:42:45;;;;;;;14.10;10.02;;;;;;;;;;5135659;27;20389;-61
2024/02/11 04:45:15;;;;;;;30.65;27.27;;;;;;;;;;5099819;27;20073;-64
2024/02/11 04:47:59;;;;;;;17.05;13.05;;;;;;;;;;5135553;27;20050;-64
2024/02/11 04:50:26;;;;;;;15.75;8.80;;;;;;;;;;5135071;27;20487;-61
2024/02/11 04:52:55;;;;;;;14.85;7.18;;;;;;;;;;5134799;27;20066;-60
2024/02/11 04:55:27;;;;;;;16.60;12.45;;;;;;;;;;5116560;28;20393;-65
2024/02/11 04:57:55;;;;;;;14.18;7.95;;;;;;;;;;5135339;27;20436;-64
2024/02/11 05:00:24;;;;;;;20.13;11.43;;;;;;;;;;5135080;27;20469;-61
2024/02/11 05:02:58;;;;;;;16.63;10.35;;;;;;;;;;5135476;27;20031;-61
2024/02/11 05:05:25;;;;;;;21.70;14.02;;;;;;;;;;5116603;27;20531;-64
2024/02/11 05:07:51;;;;;;;13.68;8.98;;;;;;;;;;5134380;27;20115;-65
2024/02/11 05:10:16;;;;;;;19.13;13.93;;;;;;;;;;5134967;28;20046;-61
2024/02/11 05:12:42;;;;;;;18.20;9.65;;;;;;;;;;5135007;28;20035;-60
2024/02/11 05:15:08;;;;;;;16.38;9.13;;;;;;;;;;5116619;28;20026;-60
2024/02/11 05:17:38;;;;;;;16.50;9.90;;;;;;;;;;5135173;28;20073;-61
2024/02/11 05:20:06;;;;;;;13.88;8.77;;;;;;;;;;5135164;28;20031;-60
2024/02/11 05:22:33;;;;;;;14.43;8.27;;;;;;;;;;5134986;28;20472;-61
2024/02/11 05:24:59;;;;;;;13.65;8.38;;;;;;;;;;5134951;28;20027;-61
2024/02/11 05:27:25;;;;;;;16.52;8.32;;;;;;;;;;5134529;28;20033;-61
2024/02/11 05:29:50;;;;;;;16.40;10.18;;;;;;;;;;5116098;28;20023;-61
2024/02/11 05:32:17;;;;;;;18.10;9.77;;;;;;;;;;5134581;28;20088;-65
2024/02/11 05:34:42;;;;;;;18.67;11.20;;;;;;;;;;5116468;28;20019;-64
2024/02/11 05:37:07;;;;;;;20.23;9.68;;;;;;;;;;5116289;28;20362;-64
2024/02/11 05:39:35;;;;;;;14.60;9.45;;;;;;;;;;5134308;28;20027;-63
2024/02/11 05:42:00;;;;;;;14.63;9.40;;;;;;;;;;5116373;28;20061;-64
2024/02/11 05:44:29;;;;;;;14.57;8.65;;;;;;;;;;5134641;28;20027;-64
2024/02/11 05:46:54;;;;;;;20.88;12.52;;;;;;;;;;5134958;28;20414;-60
2024/02/11 05:49:20;;;;;;;17.02;11.43;;;;;;;;;;5134635;28;20050;-60
2024/02/11 05:51:47;;;;;;;18.20;11.23;;;;;;;;;;5134862;28;20030;-63
2024/02/11 05:54:16;;;;;;;17.58;12.23;;;;;;;;;;5134979;28;20065;-63
2024/02/11 05:56:42;;;;;;;15.32;9.20;;;;;;;;;;5134902;28;20529;-64
2024/02/11 05:59:07;;;;;;;12.75;9.10;;;;;;;;;;5134459;28;20023;-64
2024/02/11 06:01:33;;;;;;;14.48;9.73;;;;;;;;;;5134550;28;20049;-60
2024/02/11 06:04:05;;;;;;;16.33;10.15;;;;;;;;;;5134842;28;20029;-60
2024/02/11 06:06:31;;;;;;;15.50;9.32;;;;;;;;;;5134650;28;20035;-60
2024/02/11 06:08:57;;;;;;;15.15;9.73;;;;;;;;;;5134461;28;20083;-60
2024/02/11 06:11:23;;;;;;;18.83;10.85;;;;;;;;;;5134636;28;20147;-60
2024/02/11 06:13:55;;;;;;;16.98;9.77;;;;;;;;;;5134320;28;20477;-60
2024/02/11 06:16:20;;;;;;;18.00;9.77;;;;;;;;;;5116216;28;20027;-64
2024/02/11 06:18:46;;;;;;;16.48;8.65;;;;;;;;;;5137332;27;20388;-64
2024/02/11 06:21:11;;;;;;;20.00;9.90;;;;;;;;;;5138029;27;20050;-64
2024/02/11 06:23:47;;;;;;;14.50;8.70;;;;;;;;;;5138330;27;20419;-64
2024/02/11 06:26:14;;;;;;;11.80;7.60;;;;;;;;;;5119348;27;20031;-63
2024/02/11 06:28:40;;;;;;;12.07;8.25;;;;;;;;;;5134771;22;20059;-63
2024/02/11 06:31:05;;;;;;;13.30;8.60;;;;;;;;;;5141402;22;20497;-63
2024/02/11 06:33:31;;;;;;;12.65;7.78;;;;;;;;;;5141955;22;20382;-62
2024/02/11 06:36:07;;;;;;;23.90;19.13;;;;;;;;;;5136817;22;20060;-59
2024/02/11 06:38:32;;;;;;;15.07;9.35;;;;;;;;;;5134809;22;20178;-62
2024/02/11 06:40:58;;;;;;;15.57;9.73;;;;;;;;;;5116768;28;20103;-65
2024/02/11 06:43:24;;;;;;;24.65;20.48;;;;;;;;;;5098402;28;20036;-64
2024/02/11 06:45:50;;;;;;;14.50;8.63;;;;;;;;;;5098396;28;20024;-64
2024/02/11 06:48:16;;;;;;;13.38;9.55;;;;;;;;;;5098753;28;20032;-64
2024/02/11 06:50:41;;;;;;;16.60;11.50;;;;;;;;;;5116818;28;20034;-64
2024/02/11 06:53:08;;;;;;;13.38;9.00;;;;;;;;;;5116452;28;20024;-64
2024/02/11 06:55:35;;;;;;;18.67;12.45;;;;;;;;;;5116792;28;20035;-64
2024/02/11 06:58:01;;;;;;;13.82;9.05;;;;;;;;;;5116434;28;20020;-64
2024/02/11 07:00:26;;;;;;;18.67;9.05;;;;;;;;;;5116698;28;20516;-64
2024/02/11 07:03:00;;;;;;;13.95;9.00;;;;;;;;;;5098117;28;20130;-64
2024/02/11 07:05:26;;;;;;;18.02;13.18;;;;;;;;;;5116301;28;20074;-64
2024/02/11 07:07:51;;;;;;;35.30;17.38;;;;;;;;;;5116252;28;20028;-64
2024/02/11 07:10:16;;;;;;;27.13;15.88;;;;;;;;;;5097902;28;20122;-64
2024/02/11 07:12:44;;;;;;;21.38;11.77;;;;;;;;;;5116389;28;20030;-66
2024/02/11 07:15:11;;;;;;;26.08;12.65;;;;;;;;;;5116099;28;20035;-66
2024/02/11 07:17:38;;;;;;;19.77;12.57;;;;;;;;;;5116315;28;20047;-65
2024/02/11 07:20:05;;;;;;;21.73;10.88;;;;;;;;;;5116306;28;20423;-64
2024/02/11 07:22:31;;;;;;;58.55;21.30;;;;;;;;;;5116255;28;20039;-64
2024/02/11 07:24:56;;;;;;;53.28;21.92;;;;;;;;;;5115887;28;20024;-64
2024/02/11 07:27:24;;;;;;;104.05;48.95;;;;;;;;;;5116140;28;20036;-67
2024/02/11 07:29:49;;;;;;;62.10;32.28;;;;;;;;;;5115003;28;20136;-67
2024/02/11 07:32:15;;;;;;;37.85;16.05;;;;;;;;;;5115798;28;20061;-66
2024/02/11 07:34:40;;;;;;;65.68;31.40;;;;;;;;;;5115860;28;20052;-64
2024/02/11 07:37:06;;;;;;;67.85;29.98;;;;;;;;;;5116099;28;20024;-66
2024/02/11 07:39:32;;;;;;;91.38;50.47;;;;;;;;;;5116131;28;20063;-65
2024/02/11 07:41:58;;;;;;;144.60;78.60;;;;;;;;;;5115866;28;20035;-63
2024/02/11 07:44:23;;;;;;;139.82;77.05;;;;;;;;;;5116044;28;20035;-64
2024/02/11 07:46:49;;;;;;;67.07;34.17;;;;;;;;;;5115664;28;20027;-64
2024/02/11 07:49:15;;;;;;;77.47;50.10;;;;;;;;;;5116072;28;20512;-64
2024/02/11 07:51:44;;;;;;;87.25;47.88;;;;;;;;;;5115359;28;20040;-64
2024/02/11 07:54:12;;;;;;;137.65;77.05;;;;;;;;;;5115509;28;20031;-64
2024/02/11 07:56:43;;;;;;;223.93;144.00;;;;;;;;;;5115454;28;20012;-64
2024/02/11 07:59:11;;;;;;;37.88;26.42;;;;;;;;;;5115933;28;20031;-64
2024/02/11 08:01:37;;;;;;;220.05;110.05;;;;;;;;;;5115732;28;20035;-64
2024/02/11 08:04:03;;;;;;;40.38;24.13;;;;;;;;;;5115724;28;20028;-64
2024/02/11 08:06:29;;;;;;;26.13;15.80;;;;;;;;;;5115021;28;20024;-64
2024/02/11 08:08:54;;;;;;;27.48;15.98;;;;;;;;;;5115570;28;20049;-64
2024/02/11 08:11:20;;;;;;;24.20;16.38;;;;;;;;;;5115066;28;20024;-64
2024/02/11 08:13:46;;;;;;;25.75;16.48;;;;;;;;;;5114935;28;20032;-64
2024/02/11 08:16:12;;;;;;;26.45;18.10;;;;;;;;;;5115175;28;20363;-64
2024/02/11 08:18:38;;;;;;;33.28;23.13;;;;;;;;;;5115214;28;20335;-64
2024/02/11 08:21:04;;;;;;;26.45;19.80;;;;;;;;;;5114737;28;20052;-64
2024/02/11 08:23:30;;;;;;;11.25;9.75;;;;;;;;;;5115085;28;20098;-63
2024/02/11 08:25:55;;;;;;;34.47;24.92;;;;;;;;;;5114877;28;20061;-64
2024/02/11 08:28:21;;;;;;;14.27;9.05;;;;;;;;;;5114661;28;20496;-64
2024/02/11 08:30:47;;;;;;;18.63;11.55;;;;;;;;;;5115134;28;20039;-64
2024/02/11 08:33:12;;;;;;;17.58;10.23;;;;;;;;;;5114616;28;20046;-64
2024/02/11 08:35:37;;;;;;;11.23;7.65;;;;;;;;;;5114569;28;20027;-64
2024/02/11 08:38:03;;;;;;;16.25;10.38;;;;;;;;;;5096271;28;20034;-62
2024/02/11 08:40:29;;;;;;;22.48;12.18;;;;;;;;;;5114864;28;20052;-62
2024/02/11 08:42:54;;;;;;;29.27;17.42;;;;;;;;;;5114674;28;20469;-62
2024/02/11 08:45:19;;;;;;;23.80;14.40;;;;;;;;;;5114438;28;20563;-62
2024/02/11 08:47:45;;;;;;;15.98;10.20;;;;;;;;;;5114676;28;20036;-62
2024/02/11 08:50:10;;;;;;;13.27;7.80;;;;;;;;;;5114915;28;20051;-62
2024/02/11 08:52:36;;;;;;;18.25;9.85;;;;;;;;;;5114257;28;20078;-64
2024/02/11 08:55:02;;;;;;;25.05;12.80;;;;;;;;;;5114293;28;20034;-61
2024/02/11 08:57:27;;;;;;;44.13;21.55;;;;;;;;;;5114237;28;20060;-62
2024/02/11 08:59:56;;;;;;;33.40;16.17;;;;;;;;;;5094980;28;20024;-62
2024/02/11 09:02:26;;;;;;;28.02;12.82;;;;;;;;;;5113960;28;20020;-62
2024/02/11 09:04:53;;;;;;;18.40;9.70;;;;;;;;;;5113610;28;20086;-62
2024/02/11 09:07:20;;;;;;;26.90;11.50;;;;;;;;;;5112071;28;20144;-62
2024/02/11 09:09:46;;;;;;;46.42;21.90;;;;;;;;;;5112037;28;20427;-62
2024/02/11 09:12:11;;;;;;;33.60;15.30;;;;;;;;;;5112069;28;20024;-62
2024/02/11 09:14:38;;;;;;;59.00;33.30;;;;;;;;;;5112090;28;20051;-62
2024/02/11 09:17:05;;;;;;;28.00;15.55;;;;;;;;;;5093853;28;20055;-62
2024/02/11 09:19:31;;;;;;;20.83;10.38;;;;;;;;;;5112193;28;20420;-62
2024/02/11 09:21:59;;;;;;;26.35;13.77;;;;;;;;;;5114152;28;20031;-62
2024/02/11 09:24:25;;;;;;;21.70;11.82;;;;;;;;;;5114015;28;20106;-62
2024/02/11 09:26:53;;;;;;;34.90;20.40;;;;;;;;;;5113946;28;20115;-62
2024/02/11 09:29:22;;;;;;;29.58;18.13;;;;;;;;;;5114203;28;20032;-62
2024/02/11 09:31:48;;;;;;;25.75;15.65;;;;;;;;;;5113858;28;20473;-63
2024/02/11 09:34:13;;;;;;;85.38;62.15;;;;;;;;;;5113916;28;20024;-63
2024/02/11 09:36:39;;;;;;;46.85;30.38;;;;;;;;;;5114411;28;20038;-61
2024/02/11 09:39:04;;;;;;;27.90;14.38;;;;;;;;;;5113862;28;20031;-64
2024/02/11 09:41:30;;;;;;;23.45;12.48;;;;;;;;;;5114099;28;20035;-64
2024/02/11 09:43:58;;;;;;;29.23;17.67;;;;;;;;;;5096281;28;20036;-68
2024/02/11 09:46:25;;;;;;;25.75;14.82;;;;;;;;;;5114081;28;20040;-63
2024/02/11 09:48:53;;;;;;;29.30;20.60;;;;;;;;;;5113779;28;20030;-62
2024/02/11 09:51:20;;;;;;;28.42;18.45;;;;;;;;;;5113960;28;20024;-63
2024/02/11 09:53:46;;;;;;;43.08;23.75;;;;;;;;;;5117094;28;20035;-63
2024/02/11 09:56:12;;;;;;;26.65;17.77;;;;;;;;;;5117883;28;20032;-63
2024/02/11 09:58:37;;;;;;;20.95;14.05;;;;;;;;;;5118157;28;20038;-63
2024/02/11 10:01:03;;;;;;;16.17;12.43;;;;;;;;;;5117525;28;20385;-63
2024/02/11 10:03:29;;;;;;;12.80;9.32;;;;;;;;;;5082297;28;20031;-64
2024/02/11 10:05:56;;;;;;;18.55;13.93;;;;;;;;;;5118004;28;20441;-64
2024/02/11 10:08:21;;;;;;;21.60;16.88;;;;;;;;;;5117406;28;20103;-62
2024/02/11 10:10:48;;;;;;;16.95;14.70;;;;;;;;;;5117393;28;20107;-63
2024/02/11 10:13:25;;;;;;;14.65;9.75;;;;;;;;;;5117532;28;20369;-63
2024/02/11 10:15:52;;;;;;;17.45;9.70;;;;;;;;;;5117268;28;20024;-63
2024/02/11 10:18:18;;;;;;;17.90;12.65;;;;;;;;;;5117797;28;20153;-63
2024/02/11 10:20:46;;;;;;;18.25;12.63;;;;;;;;;;5117178;28;20489;-71
2024/02/11 10:23:11;;;;;;;21.13;12.93;;;;;;;;;;5117419;28;20042;-62
2024/02/11 10:25:37;;;;;;;10.57;7.05;;;;;;;;;;5117022;28;20024;-63
2024/02/11 10:28:04;;;;;;;13.82;6.97;;;;;;;;;;5117024;28;20034;-63
2024/02/11 10:30:30;;;;;;;16.67;9.07;;;;;;;;;;5117243;28;20112;-63
2024/02/11 10:33:01;;;;;;;17.60;9.05;;;;;;;;;;5099335;28;20381;-63
2024/02/11 10:35:28;;;;;;;9.35;5.47;;;;;;;;;;5116897;28;20031;-63
2024/02/11 10:37:55;;;;;;;6.95;5.03;;;;;;;;;;5117186;28;20098;-64
2024/02/11 10:40:23;;;;;;;9.98;5.80;;;;;;;;;;5116674;28;20078;-70
2024/02/11 10:42:50;;;;;;;12.95;6.90;;;;;;;;;;5116535;28;20024;-65
2024/02/11 10:45:16;;;;;;;11.55;6.45;;;;;;;;;;5117080;28;20028;-66
2024/02/11 10:47:41;;;;;;;14.10;7.47;;;;;;;;;;5116590;28;20479;-66
2024/02/11 10:50:07;;;;;;;16.65;10.90;;;;;;;;;;5116915;28;20072;-66
2024/02/11 10:52:41;;;;;;;26.25;13.52;;;;;;;;;;5116416;28;20492;-66
2024/02/11 10:55:09;;;;;;;14.90;9.07;;;;;;;;;;5114349;28;20036;-66
2024/02/11 10:57:40;;;;;;;17.23;10.80;;;;;;;;;;5114341;28;20461;-66
2024/02/11 11:00:07;;;;;;;15.73;8.48;;;;;;;;;;5114275;28;20028;-66
2024/02/11 11:02:36;;;;;;;10.43;7.75;;;;;;;;;;5113792;28;20168;-66
2024/02/11 11:05:03;;;;;;;8.57;6.30;;;;;;;;;;5112476;28;20114;-65
2024/02/11 11:07:31;;;;;;;17.15;11.93;;;;;;;;;;5113041;28;20023;-66
2024/02/11 11:09:57;;;;;;;15.35;9.07;;;;;;;;;;5113485;28;20035;-65
2024/02/11 11:12:24;;;;;;;13.40;9.10;;;;;;;;;;5113477;28;20023;-65
2024/02/11 11:14:54;;;;;;;14.07;9.65;;;;;;;;;;5113776;28;20024;-66
2024/02/11 11:17:22;;;;;;;24.20;14.45;;;;;;;;;;5114093;28;20034;-66
2024/02/11 11:19:50;;;;;;;35.25;20.50;;;;;;;;;;5114005;28;20050;-66
2024/02/11 11:22:23;;;;;;;25.77;16.85;;;;;;;;;;5114672;28;20050;-66
2024/02/11 11:24:50;;;;;;;21.20;13.45;;;;;;;;;;5116269;28;20038;-66
2024/02/11 11:27:17;;;;;;;27.30;15.45;;;;;;;;;;5115875;28;20027;-66
2024/02/11 11:29:42;;;;;;;22.55;12.40;;;;;;;;;;5097557;28;20032;-66
2024/02/11 11:32:10;;;;;;;34.53;19.10;;;;;;;;;;5116008;28;20053;-65
2024/02/11 11:34:36;;;;;;;22.60;14.20;;;;;;;;;;5116058;28;20031;-65
2024/02/11 11:37:07;;;;;;;16.42;10.93;;;;;;;;;;5115695;28;20030;-65
2024/02/11 11:39:34;;;;;;;20.73;14.48;;;;;;;;;;5115640;28;20101;-65
2024/02/11 11:41:59;;;;;;;19.15;11.43;;;;;;;;;;5116117;28;20033;-66
2024/02/11 11:44:24;;;;;;;50.03;29.05;;;;;;;;;;5116091;28;20031;-66
2024/02/11 11:46:50;;;;;;;32.92;20.30;;;;;;;;;;5097345;28;20028;-66
2024/02/11 11:49:15;;;;;;;58.47;34.17;;;;;;;;;;5115716;28;20031;-66
2024/02/11 11:51:40;;;;;;;15.57;11.07;;;;;;;;;;5097184;28;20056;-66
2024/02/11 11:54:06;;;;;;;8.38;7.38;;;;;;;;;;5115615;28;20020;-66
2024/02/11 11:56:31;;;;;;;14.10;9.90;;;;;;;;;;5115842;28;20030;-66
2024/02/11 11:59:04;;;;;;;12.43;10.13;;;;;;;;;;5115264;28;20020;-66
2024/02/11 12:01:29;;;;;;;14.35;11.15;;;;;;;;;;5115174;28;20043;-66
2024/02/11 12:03:54;;;;;;;34.03;21.30;;;;;;;;;;5096920;28;20027;-66
2024/02/11 12:06:22;;;;;;;167.98;78.00;;;;;;;;;;5115640;28;20038;-66
2024/02/11 12:08:48;;;;;;;50.67;28.10;;;;;;;;;;5096906;28;20031;-66
2024/02/11 12:11:14;;;;;;;119.45;57.60;;;;;;;;;;5115262;28;20366;-66
2024/02/11 12:13:40;;;;;;;71.93;35.42;;;;;;;;;;5114977;28;20373;-66
2024/02/11 12:16:07;;;;;;;130.10;60.25;;;;;;;;;;5114882;28;20028;-66
2024/02/11 12:18:34;;;;;;;22.20;12.73;;;;;;;;;;5115178;28;20030;-66
2024/02/11 12:21:00;;;;;;;76.63;37.63;;;;;;;;;;5115096;28;20027;-66
2024/02/11 12:23:27;;;;;;;13.23;9.38;;;;;;;;;;5114635;28;20028;-66
2024/02/11 12:25:53;;;;;;;15.35;8.77;;;;;;;;;;5115062;28;20055;-66
2024/02/11 12:28:25;;;;;;;11.23;7.80;;;;;;;;;;5114702;28;20032;-66
2024/02/11 12:30:51;;;;;;;13.07;10.30;;;;;;;;;;5114740;28;20106;-66
2024/02/11 12:33:16;;;;;;;31.70;20.10;;;;;;;;;;5114476;28;20541;-66
2024/02/11 12:35:43;;;;;;;31.52;19.65;;;;;;;;;;5114647;28;20031;-66
2024/02/11 12:38:09;;;;;;;26.90;17.30;;;;;;;;;;5096145;28;20060;-66
2024/02/11 12:40:37;;;;;;;17.33;10.52;;;;;;;;;;5114551;28;20483;-66
2024/02/11 12:43:03;;;;;;;34.15;19.67;;;;;;;;;;5096224;28;20047;-66
2024/02/11 12:45:28;;;;;;;23.00;14.38;;;;;;;;;;5114980;28;20031;-66
2024/02/11 12:47:57;;;;;;;28.38;17.75;;;;;;;;;;5096146;28;20042;-66
2024/02/11 12:50:24;;;;;;;55.97;31.67;;;;;;;;;;5114358;28;20051;-66
2024/02/11 12:52:53;;;;;;;17.13;11.95;;;;;;;;;;5114244;28;20486;-66
2024/02/11 12:55:19;;;;;;;24.92;14.82;;;;;;;;;;5114565;28;20039;-65
2024/02/11 12:57:44;;;;;;;15.55;11.40;;;;;;;;;;5096471;28;20035;-65
2024/02/11 13:00:13;;;;;;;17.42;10.52;;;;;;;;;;5114562;28;20092;-65
2024/02/11 13:02:39;;;;;;;20.23;13.02;;;;;;;;;;5114541;28;20024;-66
2024/02/11 13:05:05;;;;;;;21.98;14.30;;;;;;;;;;5096350;28;20027;-66
2024/02/11 13:07:31;;;;;;;11.52;8.68;;;;;;;;;;5114165;28;20031;-66
2024/02/11 13:09:56;;;;;;;11.30;8.68;;;;;;;;;;5114691;28;20115;-66
2024/02/11 13:12:22;;;;;;;9.18;7.20;;;;;;;;;;5114037;28;20027;-66
2024/02/11 13:14:47;;;;;;;9.93;7.50;;;;;;;;;;5114087;28;20070;-66
2024/02/11 13:17:13;;;;;;;21.92;16.05;;;;;;;;;;5114621;28;20039;-66
2024/02/11 13:19:38;;;;;;;19.42;15.48;;;;;;;;;;5095763;28;20028;-66
2024/02/11 13:22:06;;;;;;;19.08;13.80;;;;;;;;;;5114067;28;20077;-66
2024/02/11 13:24:32;;;;;;;19.83;14.05;;;;;;;;;;5114329;28;20032;-65
2024/02/11 13:26:57;;;;;;;23.02;15.40;;;;;;;;;;5114118;28;20530;-65
2024/02/11 13:29:23;;;;;;;25.45;17.63;;;;;;;;;;5118182;28;20385;-65
2024/02/11 13:31:49;;;;;;;88.28;49.78;;;;;;;;;;5118220;28;20024;-66
2024/02/11 13:34:15;;;;;;;198.38;125.95;;;;;;;;;;5082928;28;20370;-66
2024/02/11 13:36:40;;;;;;;38.20;28.73;;;;;;;;;;5099898;28;20508;-65
2024/02/11 13:39:06;;;;;;;83.18;57.13;;;;;;;;;;5099551;28;20082;-65
2024/02/11 13:41:31;;;;;;;60.55;37.35;;;;;;;;;;5117953;28;20032;-65
2024/02/11 13:43:57;;;;;;;53.63;31.80;;;;;;;;;;5117898;28;20477;-65
2024/02/11 13:46:22;;;;;;;259.13;118.85;;;;;;;;;;5117822;28;20161;-65
2024/02/11 13:48:48;;;;;;;36.33;22.70;;;;;;;;;;5117774;28;20031;-65
2024/02/11 13:51:13;;;;;;;14.32;10.55;;;;;;;;;;5117986;28;20045;-65
2024/02/11 13:53:39;;;;;;;11.15;9.15;;;;;;;;;;5117739;28;20461;-65
2024/02/11 13:56:05;;;;;;;6.75;5.97;;;;;;;;;;5100075;28;20110;-65
2024/02/11 13:58:31;;;;;;;16.27;13.50;;;;;;;;;;5099374;28;20016;-65
2024/02/11 14:00:58;;;;;;;10.55;9.15;;;;;;;;;;5117561;28;20059;-65
2024/02/11 14:03:24;;;;;;;14.48;11.48;;;;;;;;;;5099683;28;20039;-65
2024/02/11 14:05:49;;;;;;;15.65;14.02;;;;;;;;;;5117750;28;20027;-65
2024/02/11 14:08:16;;;;;;;12.25;10.95;;;;;;;;;;5117440;28;20230;-65
2024/02/11 14:10:44;;;;;;;20.73;18.55;;;;;;;;;;5099321;28;20038;-65
2024/02/11 14:13:09;;;;;;;12.77;11.38;;;;;;;;;;5117825;28;20123;-65
2024/02/11 14:15:39;;;;;;;10.65;9.52;;;;;;;;;;5117607;28;20114;-65
2024/02/11 14:18:08;;;;;;;16.77;12.00;;;;;;;;;;5117581;28;20111;-65
2024/02/11 14:20:34;;;;;;;14.75;11.15;;;;;;;;;;5099782;28;20269;-65